createdAt,value
2023-03-08T00:00:25.825Z,0
2023-03-08T00:01:25.773Z,0
2023-03-08T00:02:25.644Z,0
2023-03-08T00:03:25.656Z,0
2023-03-08T00:04:26.528Z,0
2023-03-08T00:05:25.536Z,0
2023-03-08T00:06:25.559Z,0
2023-03-08T00:07:25.467Z,0
2023-03-08T00:08:25.579Z,0
2023-03-08T00:09:25.419Z,0
2023-03-08T00:10:25.355Z,0
2023-03-08T00:11:25.372Z,0
2023-03-08T00:12:25.356Z,0
2023-03-08T00:13:25.260Z,0
2023-03-08T00:14:25.229Z,0
2023-03-08T00:15:24.959Z,0
2023-03-08T00:16:25.450Z,0
2023-03-08T00:17:25.140Z,0
2023-03-08T00:18:25.069Z,0
2023-03-08T00:19:25.127Z,0
2023-03-08T00:20:25.020Z,0
2023-03-08T00:21:24.970Z,0
2023-03-08T00:22:25.115Z,0
2023-03-08T00:23:24.653Z,0
2023-03-08T00:24:24.876Z,0
2023-03-08T00:25:24.843Z,0
2023-03-08T00:26:24.993Z,0
2023-03-08T00:27:24.768Z,0
2023-03-08T00:28:24.712Z,0
2023-03-08T00:29:25.095Z,0
2023-03-08T00:30:24.652Z,0
2023-03-08T00:31:24.880Z,0
2023-03-08T00:32:24.726Z,0
2023-03-08T00:33:24.740Z,0
2023-03-08T00:34:24.493Z,0
2023-03-08T00:35:24.731Z,0
2023-03-08T00:36:24.436Z,0
2023-03-08T00:37:24.371Z,0
2023-03-08T00:38:24.331Z,0
2023-03-08T00:39:24.295Z,0
2023-03-08T00:40:24.279Z,0
2023-03-08T00:41:24.297Z,0
2023-03-08T00:42:24.208Z,0
2023-03-08T00:43:24.185Z,0
2023-03-08T00:44:24.111Z,0
2023-03-08T00:45:24.064Z,0
2023-03-08T00:46:24.571Z,0
2023-03-08T00:47:24.042Z,0
2023-03-08T00:48:23.996Z,0
2023-03-08T00:49:23.955Z,0
2023-03-08T00:50:23.925Z,0
2023-03-08T00:51:23.880Z,0
2023-03-08T00:52:23.857Z,0
2023-03-08T00:53:23.853Z,0
2023-03-08T00:54:23.750Z,0
2023-03-08T00:55:23.717Z,0
2023-03-08T00:56:23.673Z,0
2023-03-08T00:57:23.683Z,0
2023-03-08T00:58:23.720Z,0
2023-03-08T00:59:23.415Z,0
2023-03-08T01:00:23.548Z,0
2023-03-08T01:01:24.101Z,0
2023-03-08T01:02:23.461Z,0
2023-03-08T01:03:23.462Z,0
2023-03-08T01:04:23.445Z,0
2023-03-08T01:05:23.369Z,0
2023-03-08T01:06:23.591Z,0
2023-03-08T01:07:23.272Z,0
2023-03-08T01:08:23.431Z,0
2023-03-08T01:09:23.210Z,0
2023-03-08T01:10:23.172Z,0
2023-03-08T01:11:23.154Z,0
2023-03-08T01:12:23.082Z,0
2023-03-08T01:13:23.089Z,0
2023-03-08T01:14:23.043Z,0
2023-03-08T01:15:23.006Z,0
2023-03-08T01:16:22.993Z,0
2023-03-08T01:17:22.911Z,0
2023-03-08T01:18:22.878Z,0
2023-03-08T01:19:22.860Z,0
2023-03-08T01:20:22.800Z,0
2023-03-08T01:21:22.788Z,0
2023-03-08T01:22:22.712Z,0
2023-03-08T01:23:22.676Z,0
2023-03-08T01:24:22.678Z,0
2023-03-08T01:25:22.600Z,0
2023-03-08T01:26:22.628Z,0
2023-03-08T01:27:22.547Z,0
2023-03-08T01:28:22.489Z,0
2023-03-08T01:29:22.481Z,0
2023-03-08T01:30:22.430Z,0
2023-03-08T01:31:22.504Z,0
2023-03-08T01:32:22.407Z,0
2023-03-08T01:33:22.315Z,0
2023-03-08T01:34:22.272Z,0
2023-03-08T01:35:22.067Z,0
2023-03-08T01:36:22.251Z,0
2023-03-08T01:37:22.244Z,0
2023-03-08T01:38:22.169Z,0
2023-03-08T01:39:22.092Z,0
2023-03-08T01:40:22.134Z,0
2023-03-08T01:41:22.055Z,0
2023-03-08T01:42:22.022Z,0
2023-03-08T01:43:21.945Z,0
2023-03-08T01:44:21.971Z,0
2023-03-08T01:45:21.935Z,0
2023-03-08T01:46:21.880Z,0
2023-03-08T01:47:21.864Z,0
2023-03-08T01:48:21.837Z,0
2023-03-08T01:49:21.757Z,0
2023-03-08T01:50:21.743Z,0
2023-03-08T01:51:21.689Z,0
2023-03-08T01:52:21.669Z,0
2023-03-08T01:53:21.599Z,0
2023-03-08T01:54:21.573Z,0
2023-03-08T01:55:21.526Z,0
2023-03-08T01:56:21.513Z,0
2023-03-08T01:57:21.464Z,0
2023-03-08T01:58:21.406Z,0
2023-03-08T01:59:21.364Z,0
2023-03-08T02:00:21.364Z,0
2023-03-08T02:01:21.663Z,0
2023-03-08T02:02:21.260Z,0
2023-03-08T02:03:21.096Z,0
2023-03-08T02:04:21.182Z,0
2023-03-08T02:05:21.189Z,0
2023-03-08T02:06:21.158Z,0
2023-03-08T02:07:21.091Z,0
2023-03-08T02:08:20.828Z,0
2023-03-08T02:09:21.032Z,0
2023-03-08T02:10:20.966Z,0
2023-03-08T02:11:20.970Z,0
2023-03-08T02:12:20.701Z,0
2023-03-08T02:13:20.854Z,0
2023-03-08T02:14:20.860Z,0
2023-03-08T02:15:20.819Z,0
2023-03-08T02:16:20.803Z,0
2023-03-08T02:17:20.756Z,0
2023-03-08T02:18:20.704Z,0
2023-03-08T02:19:20.678Z,0
2023-03-08T02:20:20.663Z,0
2023-03-08T02:21:20.638Z,0
2023-03-08T02:22:20.538Z,0
2023-03-08T02:23:20.601Z,0
2023-03-08T02:24:20.456Z,0
2023-03-08T02:25:20.449Z,0
2023-03-08T02:26:20.409Z,0
2023-03-08T02:27:20.374Z,0
2023-03-08T02:28:20.356Z,0
2023-03-08T02:29:20.387Z,0
2023-03-08T02:30:20.278Z,0
2023-03-08T02:31:20.244Z,0
2023-03-08T02:32:20.364Z,0
2023-03-08T02:33:20.301Z,0
2023-03-08T02:34:20.114Z,0
2023-03-08T02:35:20.101Z,0
2023-03-08T02:36:20.149Z,0
2023-03-08T02:37:20.071Z,0
2023-03-08T02:38:19.965Z,0
2023-03-08T02:39:19.717Z,0
2023-03-08T02:40:19.937Z,0
2023-03-08T02:41:19.895Z,0
2023-03-08T02:42:19.858Z,0
2023-03-08T02:43:19.790Z,0
2023-03-08T02:44:19.780Z,0
2023-03-08T02:45:19.723Z,0
2023-03-08T02:46:19.667Z,0
2023-03-08T02:47:19.677Z,0
2023-03-08T02:48:19.600Z,0
2023-03-08T02:49:19.589Z,0
2023-03-08T02:50:19.517Z,0
2023-03-08T02:51:19.530Z,0
2023-03-08T02:52:19.491Z,0
2023-03-08T02:53:19.453Z,0
2023-03-08T02:54:21.642Z,0
2023-03-08T02:55:19.375Z,0
2023-03-08T02:56:19.319Z,0
2023-03-08T02:57:19.434Z,0
2023-03-08T02:58:19.245Z,0
2023-03-08T02:59:19.215Z,0
2023-03-08T03:00:19.345Z,0
2023-03-08T03:01:19.207Z,0
2023-03-08T03:02:19.111Z,0
2023-03-08T03:03:19.066Z,0
2023-03-08T03:04:19.105Z,0
2023-03-08T03:05:19.037Z,0
2023-03-08T03:06:19.352Z,0
2023-03-08T03:07:18.951Z,0
2023-03-08T03:08:18.885Z,0
2023-03-08T03:09:18.845Z,0
2023-03-08T03:10:18.572Z,0
2023-03-08T03:11:18.824Z,0
2023-03-08T03:12:18.736Z,0
2023-03-08T03:13:18.732Z,0
2023-03-08T03:14:18.669Z,0
2023-03-08T03:15:18.628Z,0
2023-03-08T03:16:19.194Z,0
2023-03-08T03:17:18.569Z,0
2023-03-08T03:18:18.541Z,0
2023-03-08T03:19:18.488Z,0
2023-03-08T03:20:18.478Z,0
2023-03-08T03:21:18.455Z,0
2023-03-08T03:22:18.388Z,0
2023-03-08T03:23:18.528Z,0
2023-03-08T03:24:18.298Z,0
2023-03-08T03:25:18.266Z,0
2023-03-08T03:26:18.246Z,0
2023-03-08T03:27:18.262Z,0
2023-03-08T03:28:18.173Z,0
2023-03-08T03:29:18.180Z,0
2023-03-08T03:30:18.114Z,0
2023-03-08T03:31:18.403Z,0
2023-03-08T03:32:18.406Z,0
2023-03-08T03:33:17.999Z,0
2023-03-08T03:34:18.016Z,0
2023-03-08T03:35:17.936Z,0
2023-03-08T03:36:17.874Z,0
2023-03-08T03:37:17.853Z,0
2023-03-08T03:38:17.800Z,0
2023-03-08T03:39:17.792Z,0
2023-03-08T03:40:17.725Z,0
2023-03-08T03:41:17.703Z,0
2023-03-08T03:42:17.674Z,0
2023-03-08T03:43:17.686Z,0
2023-03-08T03:44:17.612Z,0
2023-03-08T03:45:17.580Z,0
2023-03-08T03:46:17.690Z,0
2023-03-08T03:47:17.478Z,0
2023-03-08T03:48:17.488Z,0
2023-03-08T03:49:17.428Z,0
2023-03-08T03:50:17.363Z,0
2023-03-08T03:51:17.327Z,0
2023-03-08T03:52:17.313Z,0
2023-03-08T03:53:17.067Z,0
2023-03-08T03:54:17.259Z,0
2023-03-08T03:55:17.211Z,0
2023-03-08T03:56:17.178Z,0
2023-03-08T03:57:17.140Z,0
2023-03-08T03:58:17.153Z,0
2023-03-08T03:59:17.085Z,0
2023-03-08T04:00:17.002Z,0
2023-03-08T04:01:17.055Z,0
2023-03-08T04:02:16.988Z,0
2023-03-08T04:03:17.697Z,0
2023-03-08T04:04:16.892Z,0
2023-03-08T04:05:16.832Z,0
2023-03-08T04:06:16.820Z,0
2023-03-08T04:07:16.773Z,0
2023-03-08T04:08:16.732Z,0
2023-03-08T04:09:16.738Z,0
2023-03-08T04:10:16.664Z,0
2023-03-08T04:11:16.654Z,0
2023-03-08T04:12:16.608Z,0
2023-03-08T04:13:16.540Z,0
2023-03-08T04:14:16.532Z,0
2023-03-08T04:15:16.495Z,0
2023-03-08T04:16:17.179Z,0
2023-03-08T04:17:16.492Z,0
2023-03-08T04:18:16.408Z,0
2023-03-08T04:19:16.334Z,0
2023-03-08T04:20:16.329Z,0
2023-03-08T04:21:16.286Z,0
2023-03-08T04:22:16.378Z,0
2023-03-08T04:23:16.209Z,0
2023-03-08T04:24:16.151Z,0
2023-03-08T04:25:16.135Z,0
2023-03-08T04:26:16.079Z,0
2023-03-08T04:27:16.083Z,0
2023-03-08T04:28:16.007Z,0
2023-03-08T04:29:15.980Z,0
2023-03-08T04:30:15.923Z,0
2023-03-08T04:31:16.271Z,0
2023-03-08T04:32:16.128Z,0
2023-03-08T04:33:15.866Z,0
2023-03-08T04:34:15.879Z,0
2023-03-08T04:35:15.771Z,0
2023-03-08T04:36:15.850Z,0
2023-03-08T04:37:15.683Z,0
2023-03-08T04:38:15.652Z,0
2023-03-08T04:39:15.606Z,0
2023-03-08T04:40:15.604Z,0
2023-03-08T04:41:15.609Z,0
2023-03-08T04:42:15.509Z,0
2023-03-08T04:43:15.580Z,0
2023-03-08T04:44:15.445Z,0
2023-03-08T04:45:15.422Z,0
2023-03-08T04:46:15.553Z,0
2023-03-08T04:47:15.404Z,0
2023-03-08T04:48:15.309Z,0
2023-03-08T04:49:15.315Z,0
2023-03-08T04:50:14.997Z,0
2023-03-08T04:51:15.177Z,0
2023-03-08T04:52:15.224Z,0
2023-03-08T04:53:15.134Z,0
2023-03-08T04:54:15.129Z,0
2023-03-08T04:55:15.059Z,0
2023-03-08T04:56:15.115Z,0
2023-03-08T04:57:14.992Z,0
2023-03-08T04:58:14.955Z,0
2023-03-08T04:59:14.956Z,0
2023-03-08T05:00:14.871Z,0
2023-03-08T05:01:14.829Z,0
2023-03-08T05:02:15.140Z,0
2023-03-08T05:03:14.785Z,0
2023-03-08T05:04:14.727Z,0
2023-03-08T05:05:15.062Z,0
2023-03-08T05:06:14.728Z,0
2023-03-08T05:07:14.368Z,0
2023-03-08T05:08:14.398Z,0
2023-03-08T05:09:14.566Z,0
2023-03-08T05:10:14.525Z,0
2023-03-08T05:11:14.484Z,0
2023-03-08T05:12:14.474Z,0
2023-03-08T05:13:14.541Z,0
2023-03-08T05:14:14.375Z,0
2023-03-08T05:15:14.352Z,0
2023-03-08T05:16:14.800Z,0
2023-03-08T05:17:14.312Z,0
2023-03-08T05:18:14.242Z,0
2023-03-08T05:19:14.546Z,0
2023-03-08T05:20:14.180Z,0
2023-03-08T05:21:14.146Z,0
2023-03-08T05:22:14.117Z,0
2023-03-08T05:23:13.865Z,0
2023-03-08T05:24:14.030Z,0
2023-03-08T05:25:13.740Z,0
2023-03-08T05:26:13.978Z,0
2023-03-08T05:27:13.911Z,0
2023-03-08T05:28:13.866Z,0
2023-03-08T05:29:13.860Z,0
2023-03-08T05:30:13.789Z,0
2023-03-08T05:31:13.974Z,0
2023-03-08T05:32:15.510Z,0
2023-03-08T05:33:13.708Z,0
2023-03-08T05:34:13.737Z,0
2023-03-08T05:35:13.652Z,0
2023-03-08T05:36:13.880Z,0
2023-03-08T05:37:13.600Z,0
2023-03-08T05:38:13.526Z,0
2023-03-08T05:39:13.471Z,0
2023-03-08T05:40:13.532Z,0
2023-03-08T05:41:13.451Z,0
2023-03-08T05:42:13.368Z,0
2023-03-08T05:43:13.351Z,0
2023-03-08T05:44:13.332Z,0
2023-03-08T05:45:13.639Z,0
2023-03-08T05:46:14.103Z,0
2023-03-08T05:47:13.211Z,0
2023-03-08T05:48:13.136Z,0
2023-03-08T05:49:13.109Z,0
2023-03-08T05:50:13.073Z,0
2023-03-08T05:51:13.062Z,0
2023-03-08T05:52:13.021Z,0
2023-03-08T05:53:13.026Z,0
2023-03-08T05:54:12.954Z,0
2023-03-08T05:55:12.900Z,0
2023-03-08T05:56:12.682Z,0
2023-03-08T05:57:12.863Z,0
2023-03-08T05:58:12.798Z,0
2023-03-08T05:59:12.752Z,0
2023-03-08T06:00:12.737Z,0
2023-03-08T06:01:12.701Z,0
2023-03-08T06:02:12.898Z,0
2023-03-08T06:03:12.958Z,0
2023-03-08T06:04:12.634Z,5
2023-03-08T06:05:12.553Z,5
2023-03-08T06:06:12.516Z,5
2023-03-08T06:07:12.534Z,5
2023-03-08T06:08:12.431Z,5
2023-03-08T06:09:12.411Z,5
2023-03-08T06:10:12.134Z,5
2023-03-08T06:11:11.866Z,5
2023-03-08T06:12:12.332Z,5
2023-03-08T06:13:12.246Z,10
2023-03-08T06:14:15.155Z,5
2023-03-08T06:15:12.205Z,5
2023-03-08T06:16:12.262Z,5
2023-03-08T06:17:12.273Z,0
2023-03-08T06:18:12.085Z,5
2023-03-08T06:19:11.851Z,5
2023-03-08T06:20:12.016Z,5
2023-03-08T06:21:11.955Z,5
2023-03-08T06:22:11.572Z,5
2023-03-08T06:23:11.975Z,5
2023-03-08T06:24:11.875Z,5
2023-03-08T06:25:11.712Z,5
2023-03-08T06:26:11.792Z,5
2023-03-08T06:27:11.762Z,20
2023-03-08T06:28:11.501Z,20
2023-03-08T06:29:11.654Z,20
2023-03-08T06:30:11.725Z,20
2023-03-08T06:31:12.114Z,25
2023-03-08T06:32:11.974Z,25
2023-03-08T06:33:11.542Z,25
2023-03-08T06:34:11.501Z,25
2023-03-08T06:35:11.556Z,25
2023-03-08T06:36:11.205Z,25
2023-03-08T06:37:11.398Z,25
2023-03-08T06:38:11.397Z,30
2023-03-08T06:39:11.450Z,30
2023-03-08T06:40:11.290Z,30
2023-03-08T06:41:11.345Z,30
2023-03-08T06:42:11.216Z,35
2023-03-08T06:43:11.188Z,35
2023-03-08T06:44:11.177Z,35
2023-03-08T06:45:11.224Z,35
2023-03-08T06:46:11.532Z,35
2023-03-08T06:47:10.800Z,40
2023-03-08T06:48:11.011Z,40
2023-03-08T06:49:10.990Z,45
2023-03-08T06:50:10.986Z,45
2023-03-08T06:51:10.960Z,50
2023-03-08T06:52:10.873Z,50
2023-03-08T06:53:11.617Z,50
2023-03-08T06:54:10.800Z,50
2023-03-08T06:55:10.795Z,50
2023-03-08T06:56:10.703Z,55
2023-03-08T06:57:13.505Z,60
2023-03-08T06:58:10.672Z,60
2023-03-08T06:59:10.621Z,65
2023-03-08T07:00:10.604Z,65
2023-03-08T07:01:10.900Z,70
2023-03-08T07:02:10.508Z,70
2023-03-08T07:03:10.459Z,70
2023-03-08T07:04:10.785Z,70
2023-03-08T07:05:10.434Z,70
2023-03-08T07:06:10.372Z,70
2023-03-08T07:07:10.802Z,70
2023-03-08T07:08:10.300Z,70
2023-03-08T07:09:10.251Z,75
2023-03-08T07:10:10.221Z,75
2023-03-08T07:11:10.218Z,75
2023-03-08T07:12:12.831Z,80
2023-03-08T07:13:10.113Z,80
2023-03-08T07:14:10.063Z,80
2023-03-08T07:15:10.100Z,85
2023-03-08T07:16:10.356Z,75
2023-03-08T07:17:09.940Z,75
2023-03-08T07:18:09.934Z,75
2023-03-08T07:19:09.873Z,70
2023-03-08T07:20:09.859Z,65
2023-03-08T07:21:09.846Z,65
2023-03-08T07:22:09.780Z,65
2023-03-08T07:23:10.223Z,65
2023-03-08T07:24:09.708Z,65
2023-03-08T07:25:09.781Z,65
2023-03-08T07:26:09.700Z,65
2023-03-08T07:27:09.625Z,65
2023-03-08T07:28:09.665Z,70
2023-03-08T07:29:09.577Z,70
2023-03-08T07:30:09.563Z,70
2023-03-08T07:31:09.246Z,70
2023-03-08T07:32:10.067Z,70
2023-03-08T07:33:09.747Z,70
2023-03-08T07:34:09.332Z,70
2023-03-08T07:35:09.290Z,70
2023-03-08T07:36:09.761Z,70
2023-03-08T07:37:09.259Z,70
2023-03-08T07:38:09.212Z,70
2023-03-08T07:39:09.205Z,70
2023-03-08T07:40:09.143Z,70
2023-03-08T07:41:08.914Z,70
2023-03-08T07:42:09.050Z,70
2023-03-08T07:43:09.031Z,70
2023-03-08T07:44:08.736Z,75
2023-03-08T07:45:09.106Z,75
2023-03-08T07:46:09.225Z,70
2023-03-08T07:47:08.603Z,70
2023-03-08T07:48:08.893Z,70
2023-03-08T07:49:08.734Z,70
2023-03-08T07:50:08.760Z,75
2023-03-08T07:51:08.850Z,75
2023-03-08T07:52:08.732Z,80
2023-03-08T07:53:08.703Z,80
2023-03-08T07:54:08.640Z,80
2023-03-08T07:55:08.701Z,80
2023-03-08T07:56:08.562Z,80
2023-03-08T07:57:08.275Z,75
2023-03-08T07:58:08.656Z,75
2023-03-08T07:59:08.497Z,75
2023-03-08T08:00:08.476Z,75
2023-03-08T08:01:08.131Z,80
2023-03-08T08:02:07.819Z,80
2023-03-08T08:03:08.617Z,80
2023-03-08T08:04:09.653Z,80
2023-03-08T08:05:08.572Z,80
2023-03-08T08:06:08.166Z,80
2023-03-08T08:07:09.913Z,80
2023-03-08T08:08:08.097Z,80
2023-03-08T08:09:08.397Z,80
2023-03-08T08:10:08.087Z,80
2023-03-08T08:11:08.410Z,80
2023-03-08T08:12:07.944Z,80
2023-03-08T08:13:07.706Z,80
2023-03-08T08:14:07.387Z,80
2023-03-08T08:15:07.954Z,80
2023-03-08T08:16:08.037Z,80
2023-03-08T08:17:07.796Z,80
2023-03-08T08:18:07.732Z,80
2023-03-08T08:19:07.680Z,80
2023-03-08T08:20:07.718Z,80
2023-03-08T08:21:07.645Z,80
2023-03-08T08:22:07.349Z,80
2023-03-08T08:23:07.307Z,80
2023-03-08T08:24:07.498Z,80
2023-03-08T08:25:07.518Z,85
2023-03-08T08:26:07.454Z,85
2023-03-08T08:27:07.421Z,90
2023-03-08T08:28:07.483Z,85
2023-03-08T08:29:07.305Z,90
2023-03-08T08:30:07.290Z,85
2023-03-08T08:31:07.517Z,85
2023-03-08T08:32:07.057Z,90
2023-03-08T08:33:07.208Z,90
2023-03-08T08:34:06.944Z,90
2023-03-08T08:35:09.709Z,95
2023-03-08T08:36:07.477Z,95
2023-03-08T08:37:07.042Z,95
2023-03-08T08:38:06.987Z,95
2023-03-08T08:39:06.977Z,90
2023-03-08T08:40:06.917Z,85
2023-03-08T08:41:07.078Z,85
2023-03-08T08:42:06.895Z,85
2023-03-08T08:43:06.868Z,85
2023-03-08T08:44:06.796Z,85
2023-03-08T08:45:06.751Z,85
2023-03-08T08:46:07.157Z,85
2023-03-08T08:47:06.442Z,85
2023-03-08T08:48:06.380Z,85
2023-03-08T08:49:06.709Z,90
2023-03-08T08:50:06.561Z,90
2023-03-08T08:51:06.553Z,95
2023-03-08T08:52:06.529Z,100
2023-03-08T08:53:06.999Z,100
2023-03-08T08:54:06.688Z,100
2023-03-08T08:55:06.116Z,95
2023-03-08T08:56:12.011Z,90
2023-03-08T08:57:06.321Z,90
2023-03-08T08:58:06.269Z,85
2023-03-08T08:59:06.412Z,80
2023-03-08T09:00:06.179Z,80
2023-03-08T09:01:07.227Z,85
2023-03-08T09:02:06.357Z,90
2023-03-08T09:03:05.934Z,90
2023-03-08T09:04:06.266Z,90
2023-03-08T09:05:06.387Z,90
2023-03-08T09:06:06.189Z,90
2023-03-08T09:07:05.792Z,90
2023-03-08T09:08:06.058Z,95
2023-03-08T09:09:05.904Z,100
2023-03-08T09:10:05.836Z,100
2023-03-08T09:11:05.839Z,100
2023-03-08T09:12:05.755Z,95
2023-03-08T09:13:07.608Z,95
2023-03-08T09:14:05.913Z,95
2023-03-08T09:15:05.707Z,100
2023-03-08T09:16:05.712Z,105
2023-03-08T09:17:05.799Z,115
2023-03-08T09:18:05.551Z,120
2023-03-08T09:19:05.683Z,125
2023-03-08T09:20:05.230Z,135
2023-03-08T09:21:05.319Z,135
2023-03-08T09:22:05.399Z,130
2023-03-08T09:23:05.375Z,130
2023-03-08T09:24:05.331Z,125
2023-03-08T09:25:05.283Z,115
2023-03-08T09:26:06.972Z,110
2023-03-08T09:27:05.274Z,110
2023-03-08T09:28:05.200Z,105
2023-03-08T09:29:05.078Z,105
2023-03-08T09:30:04.878Z,105
2023-03-08T09:31:05.221Z,105
2023-03-08T09:32:07.634Z,100
2023-03-08T09:33:04.884Z,100
2023-03-08T09:34:05.071Z,100
2023-03-08T09:35:04.993Z,95
2023-03-08T09:36:05.381Z,95
2023-03-08T09:37:04.662Z,95
2023-03-08T09:38:05.832Z,95
2023-03-08T09:39:04.557Z,100
2023-03-08T09:40:04.535Z,105
2023-03-08T09:41:04.737Z,115
2023-03-08T09:42:04.727Z,120
2023-03-08T09:43:04.664Z,120
2023-03-08T09:44:04.605Z,135
2023-03-08T09:45:07.056Z,140
2023-03-08T09:46:04.796Z,150
2023-03-08T09:47:04.302Z,155
2023-03-08T09:48:04.381Z,170
2023-03-08T09:49:04.479Z,180
2023-03-08T09:50:04.381Z,190
2023-03-08T09:51:04.390Z,190
2023-03-08T09:52:04.361Z,195
2023-03-08T09:53:04.106Z,195
2023-03-08T09:54:04.269Z,195
2023-03-08T09:55:04.697Z,190
2023-03-08T09:56:04.195Z,190
2023-03-08T09:57:03.629Z,185
2023-03-08T09:58:04.296Z,175
2023-03-08T09:59:04.052Z,175
2023-03-08T10:00:04.049Z,180
2023-03-08T10:01:04.264Z,180
2023-03-08T10:02:03.929Z,185
2023-03-08T10:03:04.118Z,195
2023-03-08T10:04:04.205Z,205
2023-03-08T10:05:21.620Z,210
2023-03-08T10:06:03.565Z,215
2023-03-08T10:07:03.921Z,215
2023-03-08T10:08:03.754Z,215
2023-03-08T10:09:03.786Z,220
2023-03-08T10:10:03.700Z,220
2023-03-08T10:11:03.745Z,225
2023-03-08T10:12:03.339Z,220
2023-03-08T10:13:03.536Z,235
2023-03-08T10:14:03.517Z,230
2023-03-08T10:15:03.302Z,230
2023-03-08T10:16:03.189Z,235
2023-03-08T10:17:04.112Z,245
2023-03-08T10:18:03.133Z,250
2023-03-08T10:19:03.381Z,255
2023-03-08T10:20:03.321Z,260
2023-03-08T10:21:03.387Z,260
2023-03-08T10:22:02.743Z,255
2023-03-08T10:23:03.226Z,235
2023-03-08T10:24:03.221Z,210
2023-03-08T10:25:03.145Z,215
2023-03-08T10:26:03.080Z,215
2023-03-08T10:27:04.838Z,225
2023-03-08T10:28:03.025Z,220
2023-03-08T10:29:02.734Z,230
2023-03-08T10:30:02.494Z,225
2023-03-08T10:31:03.397Z,235
2023-03-08T10:32:02.970Z,245
2023-03-08T10:33:05.355Z,270
2023-03-08T10:34:02.786Z,280
2023-03-08T10:35:02.788Z,260
2023-03-08T10:36:03.110Z,245
2023-03-08T10:37:02.690Z,230
2023-03-08T10:38:02.477Z,220
2023-03-08T10:39:04.926Z,215
2023-03-08T10:40:02.726Z,225
2023-03-08T10:41:02.709Z,230
2023-03-08T10:42:02.529Z,215
2023-03-08T10:43:02.282Z,220
2023-03-08T10:44:02.482Z,210
2023-03-08T10:45:02.433Z,200
2023-03-08T10:46:02.471Z,195
2023-03-08T10:47:02.370Z,185
2023-03-08T10:48:02.318Z,190
2023-03-08T10:49:02.302Z,205
2023-03-08T10:50:01.522Z,215
2023-03-08T10:51:02.049Z,230
2023-03-08T10:52:02.256Z,245
2023-03-08T10:53:02.172Z,240
2023-03-08T10:54:02.127Z,245
2023-03-08T10:55:02.212Z,260
2023-03-08T10:56:02.195Z,265
2023-03-08T10:57:01.574Z,265
2023-03-08T10:58:01.820Z,245
2023-03-08T10:59:01.685Z,235
2023-03-08T11:00:01.963Z,215
2023-03-08T11:01:01.591Z,210
2023-03-08T11:02:01.851Z,215
2023-03-08T11:03:01.762Z,220
2023-03-08T11:04:01.789Z,220
2023-03-08T11:05:02.132Z,220
2023-03-08T11:06:01.434Z,225
2023-03-08T11:07:01.750Z,235
2023-03-08T11:08:01.602Z,245
2023-03-08T11:09:01.636Z,260
2023-03-08T11:10:01.585Z,270
2023-03-08T11:11:01.821Z,260
2023-03-08T11:12:01.499Z,265
2023-03-08T11:13:01.508Z,255
2023-03-08T11:14:01.397Z,245
2023-03-08T11:15:01.911Z,245
2023-03-08T11:16:01.524Z,235
2023-03-08T11:17:01.312Z,235
2023-03-08T11:18:01.327Z,220
2023-03-08T11:19:01.660Z,215
2023-03-08T11:20:01.193Z,220
2023-03-08T11:21:01.294Z,220
2023-03-08T11:22:01.125Z,220
2023-03-08T11:23:01.138Z,225
2023-03-08T11:24:01.297Z,215
2023-03-08T11:25:01.004Z,205
2023-03-08T11:26:00.959Z,205
2023-03-08T11:27:01.301Z,210
2023-03-08T11:28:01.113Z,215
2023-03-08T11:29:01.393Z,200
2023-03-08T11:30:00.822Z,210
2023-03-08T11:31:00.924Z,220
2023-03-08T11:32:00.762Z,230
2023-03-08T11:33:02.027Z,220
2023-03-08T11:34:01.515Z,205
2023-03-08T11:35:00.650Z,195
2023-03-08T11:36:00.967Z,195
2023-03-08T11:37:00.596Z,205
2023-03-08T11:38:00.529Z,210
2023-03-08T11:39:00.567Z,215
2023-03-08T11:40:00.509Z,215
2023-03-08T11:41:00.431Z,215
2023-03-08T11:42:00.415Z,225
2023-03-08T11:43:00.424Z,220
2023-03-08T11:44:00.330Z,220
2023-03-08T11:45:00.312Z,225
2023-03-08T11:46:00.346Z,245
2023-03-08T11:47:00.592Z,235
2023-03-08T11:48:00.195Z,235
2023-03-08T11:49:00.385Z,235
2023-03-08T11:50:00.138Z,225
2023-03-08T11:50:59.871Z,230
2023-03-08T11:52:00.086Z,235
2023-03-08T11:53:00.020Z,230
2023-03-08T11:53:59.963Z,230
2023-03-08T11:55:00.242Z,245
2023-03-08T11:55:59.915Z,245
2023-03-08T11:56:59.877Z,240
2023-03-08T11:57:59.839Z,240
2023-03-08T11:58:59.852Z,220
2023-03-08T11:59:59.501Z,225
2023-03-08T12:00:59.737Z,230
2023-03-08T12:01:59.697Z,250
2023-03-08T12:02:59.448Z,245
2023-03-08T12:04:02.557Z,230
2023-03-08T12:05:00.391Z,225
2023-03-08T12:06:00.420Z,230
2023-03-08T12:07:00.381Z,225
2023-03-08T12:07:59.367Z,215
2023-03-08T12:08:59.726Z,215
2023-03-08T12:09:59.686Z,225
2023-03-08T12:10:59.425Z,240
2023-03-08T12:11:59.335Z,235
2023-03-08T12:12:59.052Z,230
2023-03-08T12:13:59.276Z,225
2023-03-08T12:14:59.109Z,215
2023-03-08T12:15:59.359Z,210
2023-03-08T12:17:00.050Z,200
2023-03-08T12:17:59.127Z,190
2023-03-08T12:18:59.117Z,195
2023-03-08T12:19:59.042Z,185
2023-03-08T12:20:59.013Z,175
2023-03-08T12:21:58.964Z,170
2023-03-08T12:22:59.487Z,170
2023-03-08T12:23:59.217Z,165
2023-03-08T12:24:59.054Z,170
2023-03-08T12:25:58.846Z,175
2023-03-08T12:26:59.120Z,185
2023-03-08T12:27:59.093Z,185
2023-03-08T12:28:58.731Z,185
2023-03-08T12:29:58.847Z,175
2023-03-08T12:30:58.700Z,180
2023-03-08T12:31:59.468Z,175
2023-03-08T12:32:59.822Z,185
2023-03-08T12:33:58.637Z,185
2023-03-08T12:34:58.581Z,185
2023-03-08T12:35:59.351Z,180
2023-03-08T12:36:59.079Z,175
2023-03-08T12:37:59.329Z,190
2023-03-08T12:38:58.133Z,205
2023-03-08T12:39:58.326Z,200
2023-03-08T12:40:58.434Z,205
2023-03-08T12:41:58.182Z,200
2023-03-08T12:42:58.017Z,200
2023-03-08T12:43:58.221Z,200
2023-03-08T12:44:57.963Z,205
2023-03-08T12:46:00.982Z,210
2023-03-08T12:47:11.903Z,215
2023-03-08T12:47:58.292Z,210
2023-03-08T12:48:58.007Z,215
2023-03-08T12:49:58.369Z,235
2023-03-08T12:51:00.109Z,250
2023-03-08T12:51:57.834Z,245
2023-03-08T12:52:58.168Z,265
2023-03-08T12:53:57.863Z,305
2023-03-08T12:54:57.615Z,320
2023-03-08T12:55:57.768Z,280
2023-03-08T12:56:57.851Z,280
2023-03-08T12:57:57.717Z,280
2023-03-08T12:58:57.719Z,245
2023-03-08T12:59:57.645Z,200
2023-03-08T13:00:57.848Z,205
2023-03-08T13:01:57.613Z,195
2023-03-08T13:03:00.151Z,185
2023-03-08T13:03:57.265Z,200
2023-03-08T13:04:57.704Z,225
2023-03-08T13:05:57.466Z,260
2023-03-08T13:06:57.463Z,290
2023-03-08T13:07:57.351Z,315
2023-03-08T13:08:57.319Z,345
2023-03-08T13:09:59.326Z,340
2023-03-08T13:10:57.317Z,325
2023-03-08T13:11:57.222Z,315
2023-03-08T13:12:57.343Z,345
2023-03-08T13:13:57.358Z,365
2023-03-08T13:14:57.171Z,400
2023-03-08T13:15:59.360Z,405
2023-03-08T13:16:57.040Z,405
2023-03-08T13:17:57.000Z,390
2023-03-08T13:18:59.881Z,345
2023-03-08T13:19:56.935Z,300
2023-03-08T13:20:56.927Z,280
2023-03-08T13:21:56.879Z,275
2023-03-08T13:22:57.217Z,250
2023-03-08T13:23:56.986Z,255
2023-03-08T13:24:58.714Z,260
2023-03-08T13:25:58.884Z,245
2023-03-08T13:27:00.448Z,240
2023-03-08T13:27:56.665Z,250
2023-03-08T13:28:58.234Z,270
2023-03-08T13:29:57.008Z,285
2023-03-08T13:30:57.438Z,300
2023-03-08T13:31:56.297Z,305
2023-03-08T13:32:56.573Z,320
2023-03-08T13:33:56.465Z,330
2023-03-08T13:34:55.963Z,345
2023-03-08T13:35:56.680Z,325
2023-03-08T13:36:56.149Z,290
2023-03-08T13:37:58.206Z,275
2023-03-08T13:38:56.314Z,260
2023-03-08T13:39:56.241Z,255
2023-03-08T13:40:56.207Z,255
2023-03-08T13:41:56.207Z,255
2023-03-08T13:42:56.120Z,245
2023-03-08T13:43:58.365Z,255
2023-03-08T13:44:55.929Z,265
2023-03-08T13:45:56.387Z,265
2023-03-08T13:46:56.025Z,265
2023-03-08T13:47:55.767Z,270
2023-03-08T13:48:55.712Z,265
2023-03-08T13:49:58.833Z,265
2023-03-08T13:50:55.642Z,260
2023-03-08T13:51:55.850Z,255
2023-03-08T13:52:55.615Z,230
2023-03-08T13:53:56.043Z,220
2023-03-08T13:54:55.854Z,205
2023-03-08T13:55:58.430Z,180
2023-03-08T13:56:55.787Z,170
2023-03-08T13:57:55.416Z,155
2023-03-08T13:58:55.369Z,160
2023-03-08T13:59:55.754Z,170
2023-03-08T14:00:55.534Z,185
2023-03-08T14:01:55.916Z,185
2023-03-08T14:02:55.839Z,185
2023-03-08T14:03:55.574Z,195
2023-03-08T14:04:55.771Z,215
2023-03-08T14:05:55.671Z,235
2023-03-08T14:06:55.334Z,240
2023-03-08T14:07:55.246Z,265
2023-03-08T14:08:55.267Z,275
2023-03-08T14:09:55.192Z,275
2023-03-08T14:10:55.604Z,275
2023-03-08T14:11:57.415Z,270
2023-03-08T14:12:55.230Z,285
2023-03-08T14:13:55.035Z,285
2023-03-08T14:14:55.197Z,275
2023-03-08T14:15:55.566Z,260
2023-03-08T14:16:54.953Z,255
2023-03-08T14:17:57.299Z,240